Time;durP1;ratioP1;P1;durP2;ratioP2;P2;SDS_P1;SDS_P2;PMS_P1;PMS_P2;Temp;Humidity;BMP_temperature;BMP_pressure;BME280_temperature;BME280_humidity;BME280_pressure;Samples;Min_cycle;Max_cycle;Signal;HPM_P1;HPM_P2
2024/02/10 00:01:39;;;;;;;12.40;6.37;;;8.20;99.90;;;;;;5050822;28;20203;-83
2024/02/10 00:04:06;;;;;;;12.57;6.17;;;8.20;99.90;;;;;;5050726;28;20242;-83
2024/02/10 00:06:36;;;;;;;11.77;5.53;;;8.20;99.90;;;;;;5053427;28;20221;-82
2024/02/10 00:09:05;;;;;;;13.10;6.00;;;8.30;99.90;;;;;;5054617;28;20233;-82
2024/02/10 00:11:32;;;;;;;12.53;5.90;;;8.40;99.90;;;;;;5046347;28;20230;-82
2024/02/10 00:13:59;;;;;;;15.63;6.77;;;8.30;99.90;;;;;;5052519;28;20286;-84
2024/02/10 00:16:28;;;;;;;10.60;5.33;;;8.30;99.90;;;;;;5056741;28;20231;-83
2024/02/10 00:18:57;;;;;;;13.20;6.00;;;8.30;99.90;;;;;;5057534;28;20665;-83
2024/02/10 00:21:24;;;;;;;10.67;5.83;;;8.20;99.90;;;;;;5049798;28;20735;-84
2024/02/10 00:23:54;;;;;;;10.77;5.87;;;8.30;99.90;;;;;;5051391;28;20223;-82
2024/02/10 00:26:22;;;;;;;12.90;6.13;;;8.40;99.90;;;;;;5051856;28;20289;-83
2024/02/10 00:28:49;;;;;;;11.97;6.93;;;8.30;99.90;;;;;;5050368;28;20266;-83
2024/02/10 00:31:16;;;;;;;11.60;6.27;;;8.30;99.90;;;;;;5056474;28;20199;-83
2024/02/10 00:33:46;;;;;;;11.60;6.60;;;8.40;99.90;;;;;;5048663;28;20214;-82
2024/02/10 00:36:13;;;;;;;9.53;5.90;;;8.40;99.90;;;;;;5052732;28;20662;-83
2024/02/10 00:38:42;;;;;;;11.10;6.17;;;8.40;99.90;;;;;;5051393;28;20864;-82
2024/02/10 00:41:10;;;;;;;14.93;6.33;;;8.40;99.90;;;;;;5044974;28;20616;-82
2024/02/10 00:43:42;;;;;;;11.30;5.80;;;8.30;99.90;;;;;;5048850;28;20222;-82
2024/02/10 00:46:09;;;;;;;10.77;5.47;;;8.40;99.90;;;;;;5053119;28;20200;-83
2024/02/10 00:48:36;;;;;;;11.00;5.60;;;8.40;99.90;;;;;;5048352;28;20219;-83
2024/02/10 00:51:04;;;;;;;13.13;5.80;;;8.50;99.90;;;;;;5053967;28;20204;-83
2024/02/10 00:53:31;;;;;;;12.50;5.77;;;8.70;99.90;;;;;;5057192;28;20502;-83
2024/02/10 00:55:58;;;;;;;12.13;5.60;;;8.70;99.90;;;;;;5047827;28;20203;-82
2024/02/10 00:58:28;;;;;;;11.40;5.77;;;8.60;99.90;;;;;;5045121;28;20602;-83
2024/02/10 01:00:56;;;;;;;10.73;5.40;;;8.70;99.90;;;;;;5044844;28;20579;-82
2024/02/10 01:03:23;;;;;;;9.07;6.17;;;8.70;99.90;;;;;;5049447;28;20235;-81
2024/02/10 01:05:50;;;;;;;9.80;5.53;;;8.90;99.90;;;;;;5049406;28;20628;-82
2024/02/10 01:08:17;;;;;;;10.00;5.27;;;8.80;99.90;;;;;;5047492;28;20315;-81
2024/02/10 01:10:45;;;;;;;10.97;5.50;;;8.80;99.90;;;;;;5050368;28;20575;-84
2024/02/10 01:13:12;;;;;;;17.87;6.70;;;8.80;99.90;;;;;;5048757;28;20207;-83
2024/02/10 01:15:40;;;;;;;10.43;5.37;;;8.80;99.90;;;;;;5051214;28;20676;-83
2024/02/10 01:18:09;;;;;;;8.80;5.47;;;8.80;99.90;;;;;;5046015;28;20761;-84
2024/02/10 01:20:36;;;;;;;12.60;5.70;;;8.80;99.90;;;;;;5047724;28;20254;-83
2024/02/10 01:23:03;;;;;;;12.23;5.83;;;8.80;99.90;;;;;;5044581;28;20207;-81
2024/02/10 01:25:31;;;;;;;13.93;5.77;;;8.90;99.90;;;;;;5049034;28;20287;-81
2024/02/10 01:27:58;;;;;;;9.50;5.10;;;8.80;99.90;;;;;;5048112;28;20242;-81
2024/02/10 01:30:26;;;;;;;10.77;4.93;;;8.70;99.90;;;;;;5047412;28;20206;-81
2024/02/10 01:32:57;;;;;;;12.73;6.00;;;8.70;99.90;;;;;;5043318;28;20655;-81
2024/02/10 01:35:24;;;;;;;9.50;5.00;;;8.80;99.90;;;;;;5045622;28;20199;-85
2024/02/10 01:37:51;;;;;;;10.80;5.40;;;8.70;99.90;;;;;;5046735;28;20223;-85
2024/02/10 01:40:18;;;;;;;6.93;5.27;;;8.80;99.90;;;;;;5045909;28;20206;-85
2024/02/10 01:42:45;;;;;;;13.00;5.97;;;8.90;99.90;;;;;;5045559;28;20221;-83
2024/02/10 01:45:13;;;;;;;11.97;5.77;;;8.90;99.90;;;;;;5048875;28;20221;-83
2024/02/10 01:47:42;;;;;;;9.73;5.20;;;8.90;99.90;;;;;;5059236;28;20660;-84
2024/02/10 01:50:12;;;;;;;9.53;6.33;;;8.80;99.90;;;;;;5045444;28;21192;-84
2024/02/10 01:52:40;;;;;;;10.37;5.10;;;8.80;99.90;;;;;;5047323;28;20199;-82
2024/02/10 01:55:09;;;;;;;11.17;5.63;;;8.90;99.90;;;;;;5054440;28;20195;-83
2024/02/10 01:57:37;;;;;;;10.90;5.13;;;8.90;99.90;;;;;;5049297;28;20676;-80
2024/02/10 02:00:06;;;;;;;12.73;5.50;;;8.90;99.90;;;;;;5040755;28;20208;-84
2024/02/10 02:02:33;;;;;;;12.33;5.47;;;8.80;99.90;;;;;;5040907;28;20207;-84
2024/02/10 02:05:00;;;;;;;11.80;5.87;;;8.80;99.90;;;;;;5047655;28;20237;-85
2024/02/10 02:07:30;;;;;;;11.87;5.80;;;8.70;99.90;;;;;;5049705;28;20215;-84
2024/02/10 02:09:59;;;;;;;12.50;5.60;;;8.80;99.90;;;;;;5051932;28;20211;-84
2024/02/10 02:12:26;;;;;;;10.47;5.33;;;8.90;99.90;;;;;;5047438;28;20254;-84
2024/02/10 02:14:54;;;;;;;14.13;5.40;;;8.80;99.90;;;;;;5050883;28;20661;-84
2024/02/10 02:17:21;;;;;;;14.03;6.17;;;8.80;99.90;;;;;;5049968;28;20273;-84
2024/02/10 02:19:48;;;;;;;10.00;5.17;;;9.00;99.90;;;;;;5043324;28;20290;-85
2024/02/10 02:22:15;;;;;;;14.47;5.70;;;9.00;99.90;;;;;;5049198;28;20646;-84
2024/02/10 02:24:46;;;;;;;12.50;5.37;;;9.00;99.90;;;;;;5042875;28;20227;-81
2024/02/10 02:27:13;;;;;;;12.40;5.40;;;9.10;99.90;;;;;;5049981;28;20223;-85
2024/02/10 02:29:40;;;;;;;9.30;5.07;;;9.00;99.90;;;;;;5051230;28;20207;-84
2024/02/10 02:32:08;;;;;;;11.50;6.30;;;9.00;99.90;;;;;;5060665;28;20199;-85
2024/02/10 02:34:35;;;;;;;7.90;5.07;;;9.00;99.90;;;;;;5049266;28;20283;-82
2024/02/10 02:37:03;;;;;;;11.73;5.93;;;9.10;99.90;;;;;;5051070;28;20250;-82
2024/02/10 02:39:33;;;;;;;11.13;5.67;;;9.10;99.90;;;;;;5051856;28;20215;-84
2024/02/10 02:42:02;;;;;;;13.17;6.00;;;9.10;99.90;;;;;;5051841;28;20261;-85
2024/02/10 02:44:29;;;;;;;9.37;4.67;;;9.00;99.90;;;;;;5049585;28;20224;-83
2024/02/10 02:46:56;;;;;;;10.73;4.60;;;9.10;99.90;;;;;;5060561;28;20200;-83
2024/02/10 02:49:23;;;;;;;12.03;5.13;;;9.10;99.90;;;;;;5056089;28;20229;-83
2024/02/10 02:51:50;;;;;;;12.20;4.30;;;9.10;99.90;;;;;;5053625;28;20210;-84
2024/02/10 02:54:19;;;;;;;11.17;4.97;;;9.20;99.90;;;;;;5046883;28;20196;-80
2024/02/10 02:56:46;;;;;;;10.50;4.33;;;9.30;99.90;;;;;;5044954;28;20207;-83
2024/02/10 02:59:15;;;;;;;5.37;4.30;;;9.20;99.90;;;;;;5045724;28;20210;-84
2024/02/10 03:01:42;;;;;;;11.73;4.93;;;9.20;99.90;;;;;;5050161;28;20265;-85
2024/02/10 03:04:09;;;;;;;10.67;5.17;;;9.10;99.90;;;;;;5043646;28;20247;-85
2024/02/10 03:06:36;;;;;;;11.00;4.37;;;9.10;99.90;;;;;;5049494;28;20214;-84
2024/02/10 03:09:03;;;;;;;8.40;4.50;;;9.20;99.90;;;;;;5050768;28;20231;-84
2024/02/10 03:11:30;;;;;;;6.17;4.00;;;9.10;99.90;;;;;;5052477;28;20214;-84
2024/02/10 03:14:02;;;;;;;6.87;4.10;;;9.00;99.90;;;;;;5057909;28;20215;-84
2024/02/10 03:16:33;;;;;;;7.87;4.70;;;9.10;99.90;;;;;;5057653;28;20614;-80
2024/02/10 03:19:01;;;;;;;7.50;4.43;;;9.00;99.90;;;;;;5048260;28;20241;-86
2024/02/10 03:21:28;;;;;;;6.57;4.00;;;9.00;99.90;;;;;;5053234;28;20210;-85
2024/02/10 03:24:03;;;;;;;8.30;4.70;;;8.90;99.90;;;;;;5055324;28;20250;-85
2024/02/10 03:26:30;;;;;;;8.27;4.00;;;8.90;99.90;;;;;;5050692;28;20204;-85
2024/02/10 03:29:01;;;;;;;5.83;4.33;;;9.00;99.90;;;;;;5046094;28;20593;-85
2024/02/10 03:31:29;;;;;;;6.53;4.43;;;8.90;99.90;;;;;;5047552;28;20267;-85
2024/02/10 03:33:57;;;;;;;8.07;4.30;;;8.80;99.90;;;;;;5047490;28;20203;-85
2024/02/10 03:36:24;;;;;;;6.30;3.87;;;8.80;99.90;;;;;;5050566;28;20617;-85
2024/02/10 03:38:53;;;;;;;6.67;4.10;;;8.90;99.90;;;;;;5052662;28;20246;-84
2024/02/10 03:41:20;;;;;;;8.50;3.90;;;8.80;99.90;;;;;;5054720;28;20207;-87
2024/02/10 03:43:47;;;;;;;6.20;3.97;;;9.00;99.90;;;;;;5052220;28;20206;-84
2024/02/10 03:46:14;;;;;;;7.23;4.27;;;9.00;99.90;;;;;;5055976;28;20215;-84
2024/02/10 03:48:42;;;;;;;5.03;3.70;;;8.80;99.90;;;;;;5048975;28;20235;-85
2024/02/10 03:51:09;;;;;;;5.03;3.20;;;8.80;99.90;;;;;;5050082;28;20214;-84
2024/02/10 03:53:38;;;;;;;4.77;3.50;;;8.70;99.90;;;;;;5055262;28;20211;-84
2024/02/10 03:56:05;;;;;;;5.30;3.50;;;8.60;99.90;;;;;;5048092;28;20281;-84
2024/02/10 03:58:32;;;;;;;7.27;3.30;;;8.60;99.90;;;;;;5049598;28;20596;-84
2024/02/10 04:01:01;;;;;;;6.63;4.57;;;8.80;99.90;;;;;;5052772;28;20208;-84
2024/02/10 04:03:28;;;;;;;8.97;3.80;;;8.60;99.90;;;;;;5049498;28;20595;-84
2024/02/10 04:05:56;;;;;;;6.80;3.80;;;8.60;99.90;;;;;;5051364;28;20251;-84
2024/02/10 04:08:24;;;;;;;6.13;4.07;;;8.50;99.90;;;;;;5056826;28;20250;-84
2024/02/10 04:10:51;;;;;;;4.87;3.13;;;8.50;99.90;;;;;;5056780;28;20213;-84
2024/02/10 04:13:18;;;;;;;5.97;3.83;;;8.50;99.90;;;;;;5059111;28;20694;-84
2024/02/10 04:15:45;;;;;;;5.37;3.47;;;8.30;99.90;;;;;;5058450;28;20219;-84
2024/02/10 04:18:12;;;;;;;4.00;3.30;;;8.30;99.90;;;;;;5057173;28;20290;-85
2024/02/10 04:20:44;;;;;;;7.97;3.73;;;8.30;99.90;;;;;;5060184;28;20223;-84
2024/02/10 04:23:12;;;;;;;7.47;3.90;;;8.30;99.90;;;;;;5059673;28;20203;-84
2024/02/10 04:25:40;;;;;;;6.10;4.00;;;8.20;99.90;;;;;;5045349;28;20231;-85
2024/02/10 04:28:06;;;;;;;4.67;3.73;;;8.20;99.90;;;;;;5042963;28;20227;-84
2024/02/10 04:30:33;;;;;;;6.83;3.90;;;8.20;99.90;;;;;;5045379;28;20205;-86
2024/02/10 04:33:01;;;;;;;8.23;4.30;;;8.20;99.90;;;;;;5048231;28;20207;-86
2024/02/10 04:35:28;;;;;;;6.83;4.50;;;8.20;99.90;;;;;;5047752;28;20191;-86
2024/02/10 04:37:55;;;;;;;5.70;4.27;;;8.20;99.90;;;;;;5052433;28;20664;-85
2024/02/10 04:40:24;;;;;;;7.73;3.97;;;8.20;99.90;;;;;;5056568;28;20804;-86
2024/02/10 04:42:52;;;;;;;5.80;4.40;;;8.20;99.90;;;;;;5054638;28;20227;-86
2024/02/10 04:45:26;;;;;;;6.67;4.30;;;8.10;99.90;;;;;;5053368;28;20657;-85
2024/02/10 04:47:53;;;;;;;5.97;4.00;;;8.10;99.90;;;;;;5055680;28;20697;-86
2024/02/10 04:50:20;;;;;;;7.57;4.43;;;8.40;99.90;;;;;;5051323;28;20208;-86
2024/02/10 04:52:48;;;;;;;6.17;4.37;;;8.00;99.90;;;;;;5051205;28;20213;-85
2024/02/10 04:55:18;;;;;;;9.27;4.30;;;8.00;99.90;;;;;;5047532;28;20640;-85
2024/02/10 04:57:47;;;;;;;4.73;3.87;;;8.00;99.90;;;;;;5046751;28;20227;-86
2024/02/10 05:00:15;;;;;;;6.30;4.43;;;8.00;99.90;;;;;;5048001;28;20200;-86
2024/02/10 05:02:44;;;;;;;5.60;4.60;;;8.00;99.90;;;;;;5046432;28;20216;-86
2024/02/10 05:05:11;;;;;;;7.20;4.60;;;8.10;99.90;;;;;;5046365;28;20223;-85
2024/02/10 05:07:43;;;;;;;7.33;3.83;;;8.40;99.90;;;;;;5054788;28;20698;-85
2024/02/10 05:10:11;;;;;;;6.37;4.40;;;8.00;99.90;;;;;;5052092;28;20223;-85
2024/02/10 05:12:38;;;;;;;8.73;4.00;;;8.00;99.90;;;;;;5054693;28;20646;-85
2024/02/10 05:15:09;;;;;;;6.03;4.20;;;7.90;99.90;;;;;;5053553;28;20215;-85
2024/02/10 05:17:39;;;;;;;5.33;3.90;;;7.90;99.90;;;;;;5055169;28;20274;-86
2024/02/10 05:20:12;;;;;;;5.57;4.30;;;8.00;99.90;;;;;;5055484;28;20207;-86
2024/02/10 05:22:39;;;;;;;5.20;3.27;;;8.00;99.90;;;;;;5049553;28;20211;-85
2024/02/10 05:25:07;;;;;;;6.17;3.77;;;8.20;99.90;;;;;;5044539;28;20242;-85
2024/02/10 05:27:34;;;;;;;6.80;3.63;;;8.10;99.90;;;;;;5043841;28;20220;-86
2024/02/10 05:30:02;;;;;;;4.40;3.47;;;8.10;99.90;;;;;;5049489;28;20200;-85
2024/02/10 05:32:30;;;;;;;4.47;3.33;;;8.40;99.90;;;;;;5047046;28;20643;-85
2024/02/10 05:34:57;;;;;;;4.23;3.50;;;8.60;99.90;;;;;;5044122;28;20298;-85
2024/02/10 05:37:24;;;;;;;5.10;3.53;;;8.10;99.90;;;;;;5051699;28;20239;-85
2024/02/10 05:39:52;;;;;;;4.40;4.00;;;8.40;99.90;;;;;;5052991;28;20291;-85
2024/02/10 05:42:20;;;;;;;4.13;3.60;;;8.20;99.90;;;;;;5050398;28;20234;-84
2024/02/10 05:44:47;;;;;;;5.77;3.80;;;8.20;99.90;;;;;;5049778;28;20255;-84
2024/02/10 05:47:15;;;;;;;7.90;4.10;;;8.10;99.90;;;;;;5057695;28;20946;-83
2024/02/10 05:49:45;;;;;;;5.10;4.10;;;8.00;99.90;;;;;;5056160;28;20207;-84
2024/02/10 05:52:11;;;;;;;5.17;3.83;;;7.90;99.90;;;;;;5056241;28;20211;-83
2024/02/10 05:54:40;;;;;;;6.53;3.60;;;7.90;99.90;;;;;;5053101;28;20658;-83
2024/02/10 05:57:15;;;;;;;4.10;3.60;;;7.80;99.90;;;;;;5047622;28;20224;-84
2024/02/10 05:59:42;;;;;;;4.43;3.83;;;8.00;99.90;;;;;;5045556;28;20218;-84
2024/02/10 06:02:09;;;;;;;7.47;4.33;;;7.80;99.90;;;;;;5052442;28;20207;-84
2024/02/10 06:04:36;;;;;;;10.70;4.70;;;8.00;99.90;;;;;;5049705;28;20196;-85
2024/02/10 06:07:07;;;;;;;6.53;4.60;;;7.70;99.90;;;;;;5049999;28;20227;-85
2024/02/10 06:09:34;;;;;;;6.77;3.97;;;7.70;99.90;;;;;;5048392;28;20207;-84
2024/02/10 06:12:04;;;;;;;5.60;3.83;;;7.60;99.90;;;;;;5050822;28;20258;-85
2024/02/10 06:14:31;;;;;;;5.50;4.23;;;7.90;99.90;;;;;;5052595;28;20203;-84
2024/02/10 06:16:59;;;;;;;5.23;4.30;;;7.60;99.90;;;;;;5052697;28;20201;-85
2024/02/10 06:19:26;;;;;;;5.70;4.77;;;7.70;99.90;;;;;;5054170;28;20624;-84
2024/02/10 06:21:53;;;;;;;6.80;4.50;;;7.70;99.90;;;;;;5054280;28;20204;-85
2024/02/10 06:24:24;;;;;;;5.33;4.30;;;8.10;99.90;;;;;;5043551;28;20214;-85
2024/02/10 06:26:51;;;;;;;6.00;4.63;;;7.60;99.90;;;;;;5044772;28;20720;-85
2024/02/10 06:29:18;;;;;;;5.30;4.20;;;7.60;99.90;;;;;;5046496;28;20402;-85
2024/02/10 06:31:46;;;;;;;7.20;5.17;;;7.60;99.90;;;;;;5048351;28;20206;-86
2024/02/10 06:34:13;;;;;;;9.43;6.50;;;7.60;99.90;;;;;;5044077;28;20200;-86
2024/02/10 06:36:47;;;;;;;10.67;7.70;;;7.70;99.90;;;;;;5042868;28;20191;-86
2024/02/10 06:39:14;;;;;;;5.77;4.40;;;7.80;99.90;;;;;;5044436;28;20199;-85
2024/02/10 06:41:43;;;;;;;5.27;4.40;;;7.80;99.90;;;;;;5041432;28;20220;-86
2024/02/10 06:44:10;;;;;;;6.77;4.53;;;7.80;99.90;;;;;;5046090;28;20661;-86
2024/02/10 06:46:37;;;;;;;6.00;4.63;;;7.60;99.90;;;;;;5044081;28;20233;-86
2024/02/10 06:49:06;;;;;;;7.00;4.27;;;7.60;99.90;;;;;;5047046;28;20218;-86
2024/02/10 06:51:33;;;;;;;6.53;4.40;;;7.70;99.90;;;;;;5050048;28;20207;-85
2024/02/10 06:54:02;;;;;;;6.10;4.67;;;7.60;99.90;;;;;;5049947;28;20213;-84
2024/02/10 06:56:29;;;;;;;5.53;4.63;;;7.60;99.90;;;;;;5046939;28;20207;-84
2024/02/10 06:58:59;;;;;;;4.57;4.03;;;7.50;99.90;;;;;;5046267;28;20226;-84
2024/02/10 07:01:28;;;;;;;7.07;4.40;;;7.50;99.90;;;;;;5050296;28;20202;-84
2024/02/10 07:03:56;;;;;;;5.80;4.27;;;7.50;99.90;;;;;;5043799;28;20207;-84
2024/02/10 07:06:27;;;;;;;5.50;4.37;;;7.50;99.90;;;;;;5043471;28;20249;-85
2024/02/10 07:09:00;;;;;;;6.53;4.53;;;7.40;99.90;;;;;;5045805;28;20237;-84
2024/02/10 07:11:27;;;;;;;5.47;3.90;;;7.40;99.90;;;;;;5050143;28;20226;-85
2024/02/10 07:13:54;;;;;;;4.90;4.30;;;7.40;99.90;;;;;;5047098;28;20569;-85
2024/02/10 07:16:22;;;;;;;5.37;4.13;;;7.40;99.90;;;;;;5049457;28;20203;-85
2024/02/10 07:18:50;;;;;;;6.33;4.07;;;7.30;99.90;;;;;;5048858;28;20233;-85
2024/02/10 07:21:17;;;;;;;6.17;3.97;;;7.40;99.90;;;;;;5050797;28;20194;-85
2024/02/10 07:23:44;;;;;;;5.37;3.87;;;7.70;99.90;;;;;;5044821;28;20203;-87
2024/02/10 07:26:11;;;;;;;5.07;4.10;;;7.50;99.90;;;;;;5048176;28;20222;-84
2024/02/10 07:28:38;;;;;;;4.07;3.57;;;7.50;99.90;;;;;;5042197;28;20635;-82
2024/02/10 07:31:05;;;;;;;4.80;3.90;;;7.60;99.90;;;;;;5047612;28;20202;-81
2024/02/10 07:33:33;;;;;;;6.30;3.90;;;7.70;99.90;;;;;;5042504;28;20214;-80
2024/02/10 07:36:00;;;;;;;3.90;3.50;;;7.70;99.90;;;;;;5040800;28;20206;-81
2024/02/10 07:38:27;;;;;;;5.00;3.33;;;8.00;99.90;;;;;;5043514;28;20696;-76
2024/02/10 07:40:55;;;;;;;4.03;3.40;;;7.90;99.90;;;;;;5041913;28;20210;-77
2024/02/10 07:43:21;;;;;;;4.90;3.50;;;8.10;99.90;;;;;;5054149;28;20203;-81
2024/02/10 07:45:52;;;;;;;5.57;3.53;;;8.20;99.90;;;;;;5054067;28;20227;-84
2024/02/10 07:48:19;;;;;;;4.03;3.10;;;8.30;99.90;;;;;;5052455;28;20231;-85
2024/02/10 07:50:49;;;;;;;6.00;4.60;;;8.30;99.90;;;;;;5058068;28;20202;-85
2024/02/10 07:53:16;;;;;;;9.77;6.67;;;8.40;99.90;;;;;;5051329;28;20207;-85
2024/02/10 07:55:46;;;;;;;4.20;3.40;;;8.50;99.90;;;;;;5053140;28;20725;-85
2024/02/10 07:58:15;;;;;;;3.77;3.30;;;8.60;99.90;;;;;;5047010;28;20273;-84
2024/02/10 08:00:42;;;;;;;3.93;2.90;;;8.70;99.90;;;;;;5044243;28;20208;-86
2024/02/10 08:03:11;;;;;;;3.57;2.97;;;8.90;99.90;;;;;;5053978;28;20199;-85
2024/02/10 08:05:40;;;;;;;3.70;3.00;;;8.90;99.90;;;;;;5053688;28;20258;-84
2024/02/10 08:08:10;;;;;;;4.50;3.97;;;9.10;99.90;;;;;;5052198;28;20239;-84
2024/02/10 08:10:37;;;;;;;3.97;3.20;;;9.40;99.90;;;;;;5047346;28;20229;-84
2024/02/10 08:13:04;;;;;;;3.73;3.10;;;9.40;99.90;;;;;;5046387;28;20210;-85
2024/02/10 08:15:32;;;;;;;4.73;3.23;;;9.40;99.90;;;;;;5050932;28;20237;-84
2024/02/10 08:18:05;;;;;;;3.33;3.03;;;9.40;99.90;;;;;;5049585;28;20223;-84
2024/02/10 08:20:31;;;;;;;3.60;3.27;;;9.50;99.90;;;;;;5050644;28;20235;-84
2024/02/10 08:22:58;;;;;;;3.80;3.20;;;9.50;99.90;;;;;;5049009;28;20286;-84
2024/02/10 08:25:28;;;;;;;6.83;3.93;;;9.40;99.90;;;;;;5047935;28;20203;-84
2024/02/10 08:27:56;;;;;;;3.83;3.27;;;9.50;99.90;;;;;;5044849;28;20227;-84
2024/02/10 08:30:24;;;;;;;4.80;3.20;;;9.50;99.90;;;;;;5047942;28;20195;-84
2024/02/10 08:32:53;;;;;;;3.93;3.40;;;9.60;99.90;;;;;;5047259;28;20662;-84
2024/02/10 08:35:20;;;;;;;4.10;3.60;;;9.80;99.90;;;;;;5052314;28;20203;-84
2024/02/10 08:37:47;;;;;;;5.23;4.07;;;9.80;99.90;;;;;;5048012;28;20220;-84
2024/02/10 08:40:14;;;;;;;4.60;4.13;;;9.90;99.90;;;;;;5050382;28;20238;-84
2024/02/10 08:42:42;;;;;;;4.33;3.93;;;9.90;99.90;;;;;;5050821;28;20218;-84
2024/02/10 08:45:14;;;;;;;4.57;3.20;;;10.00;99.90;;;;;;5048736;28;20196;-84
2024/02/10 08:47:42;;;;;;;5.53;3.63;;;9.90;99.90;;;;;;5051091;28;20257;-84
2024/02/10 08:50:11;;;;;;;4.60;3.77;;;10.10;99.90;;;;;;5053478;28;20214;-84
2024/02/10 08:52:39;;;;;;;3.30;2.90;;;10.10;99.90;;;;;;5052953;28;20211;-84
2024/02/10 08:55:07;;;;;;;3.50;2.77;;;10.30;99.90;;;;;;5048545;28;20202;-84
2024/02/10 08:57:35;;;;;;;3.53;2.97;;;10.20;99.90;;;;;;5044365;28;20236;-84
2024/02/10 09:00:10;;;;;;;3.70;2.63;;;10.30;99.90;;;;;;5048736;28;20195;-84
2024/02/10 09:02:37;;;;;;;2.80;2.60;;;10.50;99.90;;;;;;5045794;28;20574;-85
2024/02/10 09:05:06;;;;;;;3.30;3.00;;;10.70;99.90;;;;;;5048350;28;20699;-84
2024/02/10 09:07:33;;;;;;;3.07;2.77;;;10.90;99.90;;;;;;5046448;28;20697;-84
2024/02/10 09:10:00;;;;;;;3.70;2.93;;;11.60;99.90;;;;;;5045848;28;20641;-84
2024/02/10 09:12:28;;;;;;;3.27;2.97;;;12.00;99.90;;;;;;5049971;28;20213;-84
2024/02/10 09:14:55;;;;;;;3.03;2.83;;;12.50;99.90;;;;;;5052909;28;20270;-84
2024/02/10 09:17:23;;;;;;;4.23;2.67;;;12.90;99.90;;;;;;5049175;28;20310;-84
2024/02/10 09:19:50;;;;;;;2.60;2.40;;;13.10;99.90;;;;;;5050298;28;20223;-84
2024/02/10 09:22:17;;;;;;;2.73;2.50;;;12.70;99.90;;;;;;5049538;28;20195;-84
2024/02/10 09:24:44;;;;;;;2.60;2.40;;;12.70;99.90;;;;;;5044526;28;20289;-84
2024/02/10 09:27:11;;;;;;;2.93;2.73;;;12.70;99.90;;;;;;5044024;28;20231;-84
2024/02/10 09:29:38;;;;;;;8.13;3.07;;;12.70;99.90;;;;;;5042791;28;20210;-84
2024/02/10 09:32:05;;;;;;;2.27;2.10;;;12.60;99.90;;;;;;5049806;28;20685;-85
2024/02/10 09:34:34;;;;;;;1.83;1.73;;;12.50;99.90;;;;;;5056768;28;20199;-83
2024/02/10 09:37:00;;;;;;;2.17;2.00;;;12.70;99.90;;;;;;5055991;28;20289;-82
2024/02/10 09:39:27;;;;;;;2.50;2.40;;;12.70;99.90;;;;;;5048919;28;20201;-82
2024/02/10 09:42:00;;;;;;;3.80;2.50;;;12.50;99.90;;;;;;5056878;28;20206;-82
2024/02/10 09:44:26;;;;;;;2.43;2.23;;;12.60;99.90;;;;;;5050665;28;20684;-84
2024/02/10 09:46:56;;;;;;;2.00;1.90;;;12.70;99.90;;;;;;5053558;28;20719;-84
2024/02/10 09:49:24;;;;;;;2.87;2.27;;;12.70;99.90;;;;;;5049848;28;20263;-84
2024/02/10 09:51:52;;;;;;;2.07;1.87;;;12.50;99.90;;;;;;5054262;28;20237;-83
2024/02/10 09:54:19;;;;;;;1.70;1.60;;;12.50;99.90;;;;;;5060057;28;20646;-84
2024/02/10 09:56:46;;;;;;;1.57;1.47;;;12.40;99.90;;;;;;5051093;28;20195;-85
2024/02/10 09:59:17;;;;;;;1.60;1.50;;;12.30;99.90;;;;;;5045548;28;20633;-84
2024/02/10 10:01:45;;;;;;;1.70;1.60;;;12.20;99.90;;;;;;5041558;28;20221;-83
2024/02/10 10:04:12;;;;;;;1.63;1.53;;;12.30;99.90;;;;;;5049917;28;20582;-86
2024/02/10 10:06:43;;;;;;;1.73;1.50;;;12.30;99.90;;;;;;5049063;28;20218;-82
2024/02/10 10:09:12;;;;;;;2.53;1.20;;;12.30;99.90;;;;;;5046105;28;20204;-83
2024/02/10 10:11:40;;;;;;;1.53;1.30;;;12.40;99.90;;;;;;5049346;28;20225;-83
2024/02/10 10:14:08;;;;;;;1.63;1.53;;;12.70;99.90;;;;;;5051993;28;20202;-83
2024/02/10 10:16:34;;;;;;;1.90;1.77;;;12.90;99.90;;;;;;5056932;28;20648;-83
2024/02/10 10:19:02;;;;;;;2.23;1.83;;;13.20;1.00;;;;;;5045487;28;20231;-84
2024/02/10 10:21:30;;;;;;;1.50;1.40;;;13.40;99.90;;;;;;5043834;28;20211;-86
2024/02/10 10:23:57;;;;;;;2.00;1.60;;;13.30;1.00;;;;;;5047869;28;20276;-83
2024/02/10 10:26:26;;;;;;;1.20;1.00;;;13.30;1.00;;;;;;5042299;28;20228;-83
2024/02/10 10:28:53;;;;;;;1.70;1.60;;;13.10;99.90;;;;;;5038219;28;20580;-83
2024/02/10 10:31:20;;;;;;;1.60;1.50;;;13.20;99.90;;;;;;5044989;28;20206;-83
2024/02/10 10:33:48;;;;;;;1.50;1.40;;;13.40;1.00;;;;;;5048557;28;20195;-83
2024/02/10 10:36:16;;;;;;;2.70;1.70;;;13.50;1.00;;;;;;5044636;28;20204;-84
2024/02/10 10:38:44;;;;;;;1.50;1.30;;;13.60;1.00;;;;;;5046129;28;20227;-82
2024/02/10 10:41:13;;;;;;;1.07;1.07;;;13.60;99.90;;;;;;5047088;28;20675;-83
2024/02/10 10:43:44;;;;;;;1.10;1.10;;;13.60;1.00;;;;;;5046686;28;20209;-83
2024/02/10 10:46:16;;;;;;;1.23;1.10;;;13.50;1.00;;;;;;5050231;28;20211;-83
2024/02/10 10:48:43;;;;;;;1.00;1.00;;;13.30;99.90;;;;;;5046936;28;20247;-83
2024/02/10 10:51:11;;;;;;;1.70;0.90;;;13.10;99.90;;;;;;5047921;28;20227;-84
2024/02/10 10:53:42;;;;;;;2.10;1.20;;;13.00;99.90;;;;;;5052752;28;20203;-84
2024/02/10 10:56:11;;;;;;;0.90;0.90;;;13.00;55.10;;;;;;5044577;28;20200;-84
2024/02/10 10:58:44;;;;;;;1.27;1.17;;;12.90;99.90;;;;;;5035372;28;20223;-85
2024/02/10 11:01:15;;;;;;;1.20;1.00;;;12.90;1.00;;;;;;5044467;28;20213;-84
2024/02/10 11:03:42;;;;;;;1.07;1.07;;;13.10;1.00;;;;;;5037476;28;20644;-86
2024/02/10 11:06:11;;;;;;;1.80;1.00;;;13.20;99.90;;;;;;5039708;28;20588;-82
2024/02/10 11:08:40;;;;;;;2.00;0.90;;;13.50;1.00;;;;;;5044244;28;20241;-82
2024/02/10 11:11:09;;;;;;;0.87;0.87;;;13.50;14.20;;;;;;5046627;28;20207;-83
2024/02/10 11:13:38;;;;;;;0.90;0.90;;;13.40;1.00;;;;;;5050479;28;20673;-83
2024/02/10 11:16:12;;;;;;;0.60;0.53;;;13.30;1.00;;;;;;5043963;28;20291;-84
2024/02/10 11:18:39;;;;;;;0.80;0.70;;;13.20;1.00;;;;;;5053118;28;20234;-83
2024/02/10 11:21:10;;;;;;;2.30;1.23;;;13.50;1.00;;;;;;5047032;28;20677;-82
2024/02/10 11:23:38;;;;;;;1.10;1.10;;;13.90;1.00;;;;;;5048528;28;20207;-82
2024/02/10 11:26:07;;;;;;;0.93;0.77;;;14.00;99.90;;;;;;5046935;28;20572;-85
2024/02/10 11:28:36;;;;;;;0.95;0.80;;;14.30;99.90;;;;;;5043018;28;20277;-82
2024/02/10 11:31:09;;;;;;;2.57;1.03;;;14.40;99.90;;;;;;5043732;28;20210;-82
2024/02/10 11:33:38;;;;;;;1.38;0.98;;;14.20;99.90;;;;;;5041694;28;20570;-82
2024/02/10 11:36:10;;;;;;;0.95;0.77;;;14.40;1.00;;;;;;5046632;28;20214;-82
2024/02/10 11:38:37;;;;;;;1.05;0.90;;;14.30;1.00;;;;;;5052322;28;20230;-82
2024/02/10 11:41:05;;;;;;;0.75;0.75;;;14.20;1.00;;;;;;5047272;28;20206;-83
2024/02/10 11:43:35;;;;;;;1.27;0.77;;;14.40;1.00;;;;;;5046773;28;20647;-84
2024/02/10 11:46:01;;;;;;;0.77;0.70;;;14.50;1.00;;;;;;5046174;28;20215;-83
2024/02/10 11:48:30;;;;;;;0.80;0.80;;;14.50;1.00;;;;;;5047725;28;20223;-84
2024/02/10 11:50:59;;;;;;;0.70;0.70;;;14.50;1.00;;;;;;5054488;28;20244;-84
2024/02/10 11:53:26;;;;;;;0.80;0.70;;;14.30;99.90;;;;;;5050562;28;20651;-84
2024/02/10 11:55:54;;;;;;;1.08;0.82;;;14.40;1.00;;;;;;5054999;28;20199;-82
2024/02/10 11:58:23;;;;;;;0.73;0.70;;;14.30;1.00;;;;;;5049347;28;20218;-83
2024/02/10 12:00:50;;;;;;;0.80;0.80;;;14.50;1.00;;;;;;5045488;28;20204;-84
2024/02/10 12:03:19;;;;;;;0.60;0.60;;;14.60;1.00;;;;;;5047746;28;20207;-84
2024/02/10 12:05:47;;;;;;;2.20;0.88;;;14.90;99.90;;;;;;5047004;28;20653;-85
2024/02/10 12:08:15;;;;;;;1.15;1.00;;;15.00;99.90;;;;;;5050458;28;20234;-84
2024/02/10 12:10:43;;;;;;;0.75;0.75;;;15.10;99.90;;;;;;5044994;28;20205;-83
2024/02/10 12:13:10;;;;;;;1.27;0.93;;;15.10;99.90;;;;;;5046035;28;20203;-82
2024/02/10 12:15:38;;;;;;;0.90;0.90;;;15.20;99.90;;;;;;5049735;28;20203;-84
2024/02/10 12:18:07;;;;;;;0.75;0.75;;;15.40;1.00;;;;;;5047405;28;20239;-84
2024/02/10 12:20:37;;;;;;;0.82;0.63;;;15.10;1.00;;;;;;5052813;28;20291;-83
2024/02/10 12:23:04;;;;;;;1.15;0.73;;;14.90;1.00;;;;;;5048950;28;20228;-82
2024/02/10 12:25:33;;;;;;;0.73;0.73;;;14.60;99.90;;;;;;5053712;28;20289;-82
2024/02/10 12:28:00;;;;;;;0.88;0.88;;;14.40;99.90;;;;;;5044895;28;20224;-82
2024/02/10 12:30:27;;;;;;;1.88;0.80;;;14.60;1.00;;;;;;5044024;28;20547;-83
2024/02/10 12:32:54;;;;;;;0.90;0.90;;;14.80;99.90;;;;;;5050944;28;20578;-82
2024/02/10 12:35:21;;;;;;;0.80;0.80;;;15.40;99.90;;;;;;5043704;28;20230;-83
2024/02/10 12:37:48;;;;;;;0.65;0.65;;;16.60;1.00;;;;;;5045381;28;20685;-82
2024/02/10 12:40:17;;;;;;;0.70;0.70;;;14.80;30.80;;;;;;5048459;28;20287;-83
2024/02/10 12:42:46;;;;;;;0.73;0.60;;;15.00;99.90;;;;;;5044295;28;20206;-83
2024/02/10 12:45:14;;;;;;;0.80;0.80;;;14.40;99.90;;;;;;5046089;28;20276;-83
2024/02/10 12:47:42;;;;;;;3.00;2.70;;;14.00;1.00;;;;;;5045263;28;20257;-84
2024/02/10 12:50:10;;;;;;;2.55;2.05;;;14.10;1.00;;;;;;5049239;28;20203;-82
2024/02/10 12:52:36;;;;;;;0.90;0.85;;;13.80;1.00;;;;;;5048882;28;20199;-82
2024/02/10 12:55:09;;;;;;;0.93;0.90;;;13.60;1.00;;;;;;5043987;28;20221;-82
2024/02/10 12:57:37;;;;;;;1.20;1.20;;;13.50;1.00;;;;;;5047082;28;20215;-83